Time;durP1;ratioP1;P1;durP2;ratioP2;P2;SDS_P1;SDS_P2;PMS_P1;PMS_P2;Temp;Humidity;BMP_temperature;BMP_pressure;BME280_temperature;BME280_humidity;BME280_pressure;Samples;Min_cycle;Max_cycle;Signal;HPM_P1;HPM_P2
2022/04/03 00:00:16;;;;;;;19.30;12.47;;;;;;;1.44;100.00;102258.69;5017251;28;20442;-77
2022/04/03 00:02:41;;;;;;;16.77;10.83;;;;;;;1.84;100.00;102316.81;5017629;28;20450;-77
2022/04/03 00:05:08;;;;;;;12.90;8.43;;;;;;;1.45;100.00;102274.47;5015607;28;20458;-77
2022/04/03 00:07:33;;;;;;;10.07;7.77;;;;;;;1.60;100.00;102266.44;5018374;28;20197;-78
2022/04/03 00:09:59;;;;;;;8.30;5.57;;;;;;;1.32;100.00;102270.94;5018034;28;20496;-78
2022/04/03 00:12:25;;;;;;;7.03;3.90;;;;;;;1.52;100.00;102296.88;5016943;28;20271;-79
2022/04/03 00:14:50;;;;;;;4.07;3.57;;;;;;;1.26;100.00;102237.84;5030831;28;20496;-78
2022/04/03 00:17:16;;;;;;;3.93;2.63;;;;;;;0.99;100.00;102232.63;5017096;28;20248;-78
2022/04/03 00:19:42;;;;;;;3.90;2.60;;;;;;;1.31;100.00;102282.47;5015530;28;20189;-77
2022/04/03 00:22:08;;;;;;;5.03;2.47;;;;;;;1.52;100.00;102273.09;5016950;28;20584;-78
2022/04/03 00:24:33;;;;;;;3.40;2.30;;;;;;;1.17;100.00;102219.13;5013138;28;20521;-79
2022/04/03 00:26:58;;;;;;;2.10;1.83;;;;;;;1.64;100.00;102265.25;5016007;28;20231;-78
2022/04/03 00:29:24;;;;;;;2.83;1.90;;;;;;;1.41;100.00;102235.09;5024988;28;20875;-80
2022/04/03 00:31:50;;;;;;;1.40;1.30;;;;;;;1.78;100.00;102281.03;5047359;23;20227;-72
2022/04/03 00:34:15;;;;;;;3.50;1.80;;;;;;;1.63;100.00;102300.59;5034728;28;20654;-72
2022/04/03 00:36:40;;;;;;;2.63;1.30;;;;;;;1.72;100.00;102299.97;5042093;28;20199;-72
2022/04/03 00:39:06;;;;;;;2.10;1.70;;;;;;;1.50;100.00;102239.75;5041878;28;20194;-72
2022/04/03 00:41:31;;;;;;;1.57;1.47;;;;;;;1.29;100.00;102248.19;5038042;28;20720;-72
2022/04/03 00:43:59;;;;;;;1.97;1.33;;;;;;;1.18;100.00;102218.16;5038923;28;20188;-72
2022/04/03 00:46:27;;;;;;;2.27;1.50;;;;;;;1.55;100.00;102301.13;5039745;28;20233;-72
2022/04/03 00:48:53;;;;;;;2.93;1.50;;;;;;;1.22;100.00;102248.75;5041038;28;20438;-72
2022/04/03 00:51:18;;;;;;;1.80;1.50;;;;;;;1.55;100.00;102293.19;5038323;28;20457;-72
2022/04/03 00:53:44;;;;;;;2.37;1.80;;;;;;;1.69;100.00;102295.72;5040259;28;20438;-72
2022/04/03 00:56:10;;;;;;;1.40;1.30;;;;;;;1.69;100.00;102290.44;5036747;28;20188;-72
2022/04/03 00:58:38;;;;;;;1.47;1.30;;;;;;;1.60;100.00;102279.66;5039715;28;20235;-72
2022/04/03 01:01:04;;;;;;;2.70;1.63;;;;;;;1.64;100.00;102291.72;5032923;28;20465;-72
2022/04/03 01:03:30;;;;;;;1.60;1.50;;;;;;;1.24;100.00;102247.66;5038302;28;20442;-72
2022/04/03 01:05:56;;;;;;;2.03;1.20;;;;;;;1.89;100.00;102286.44;5040188;28;20454;-72
2022/04/03 01:08:25;;;;;;;1.80;1.70;;;;;;;1.68;100.00;102286.13;5039741;28;20184;-73
2022/04/03 01:10:50;;;;;;;2.50;1.63;;;;;;;1.64;100.00;102268.75;5034761;28;20453;-73
2022/04/03 01:13:16;;;;;;;1.73;1.57;;;;;;;1.98;100.00;102280.47;5039300;28;20447;-72
2022/04/03 01:15:42;;;;;;;1.37;1.20;;;;;;;1.85;100.00;102276.16;5036032;28;20195;-72
2022/04/03 01:18:07;;;;;;;3.10;1.47;;;;;;;1.66;100.00;102276.59;5036492;28;20216;-72
2022/04/03 01:20:35;;;;;;;2.90;1.20;;;;;;;1.48;100.00;102229.31;5036879;28;20467;-72
2022/04/03 01:23:00;;;;;;;2.43;1.27;;;;;;;1.70;100.00;102268.31;5039041;28;20189;-73
2022/04/03 01:25:26;;;;;;;2.13;1.20;;;;;;;1.63;100.00;102280.28;5040144;28;20964;-73
2022/04/03 01:27:51;;;;;;;1.40;1.20;;;;;;;1.83;100.00;102270.13;5039503;28;20204;-73
2022/04/03 01:30:16;;;;;;;1.50;1.40;;;;;;;1.86;100.00;102272.56;5037627;28;20294;-72
2022/04/03 01:32:42;;;;;;;1.40;1.30;;;;;;;1.39;100.00;102253.72;5036902;28;20200;-72
2022/04/03 01:35:08;;;;;;;3.40;1.60;;;;;;;1.68;100.00;102277.31;5039250;28;20196;-72
2022/04/03 01:37:33;;;;;;;2.83;1.70;;;;;;;1.54;100.00;102265.91;5033404;28;20680;-73
2022/04/03 01:39:58;;;;;;;1.70;1.60;;;;;;;1.72;100.00;102239.13;5035224;28;20462;-73
2022/04/03 01:42:24;;;;;;;2.27;2.07;;;;;;;1.43;100.00;102265.78;5038653;28;20254;-73
2022/04/03 01:44:49;;;;;;;3.03;2.20;;;;;;;1.33;100.00;102225.91;5039257;28;20194;-72
2022/04/03 01:47:15;;;;;;;1.97;1.87;;;;;;;1.75;100.00;102263.56;5037856;28;20211;-72
2022/04/03 01:49:40;;;;;;;2.00;1.67;;;;;;;1.80;100.00;102234.16;5036571;28;20183;-73
2022/04/03 01:52:06;;;;;;;1.30;1.20;;;;;;;2.08;100.00;102246.25;5036886;28;20192;-73
2022/04/03 01:54:31;;;;;;;1.80;1.20;;;;;;;2.30;100.00;102255.34;5036499;28;20197;-72
2022/04/03 01:56:57;;;;;;;1.80;1.00;;;;;;;2.33;100.00;102210.94;5039181;28;20299;-72
2022/04/03 01:59:22;;;;;;;1.23;0.90;;;;;;;2.53;100.00;102216.59;5034492;28;20188;-73
2022/04/03 02:01:48;;;;;;;2.37;0.90;;;;;;;2.08;100.00;102147.50;5036848;28;20337;-73
2022/04/03 02:04:13;;;;;;;1.20;1.10;;;;;;;2.85;100.00;102260.09;5038203;28;20187;-73
2022/04/03 02:06:40;;;;;;;1.43;1.10;;;;;;;3.05;100.00;102257.78;5038024;28;20568;-73
2022/04/03 02:09:07;;;;;;;2.30;1.37;;;;;;;2.78;100.00;102260.66;5036783;28;20661;-72
2022/04/03 02:11:36;;;;;;;0.90;0.90;;;;;;;2.76;100.00;102257.28;5037213;28;20465;-72
2022/04/03 02:14:02;;;;;;;0.93;0.83;;;;;;;2.75;100.00;102259.09;5033978;28;20486;-72
2022/04/03 02:16:28;;;;;;;1.80;1.10;;;;;;;2.59;100.00;102210.84;5034982;28;20446;-72
2022/04/03 02:18:53;;;;;;;2.47;1.10;;;;;;;2.89;100.00;102243.03;5038350;28;20465;-72
2022/04/03 02:21:18;;;;;;;1.30;1.17;;;;;;;2.87;100.00;102258.19;5036768;28;20231;-72
2022/04/03 02:23:44;;;;;;;0.90;0.90;;;;;;;3.06;100.00;102262.09;5035134;28;20183;-71
2022/04/03 02:26:09;;;;;;;2.73;0.87;;;;;;;3.11;100.00;102244.06;5034774;28;20192;-70
2022/04/03 02:28:35;;;;;;;1.20;1.10;;;;;;;2.98;100.00;102236.19;5036247;28;20270;-70
2022/04/03 02:31:01;;;;;;;1.30;1.20;;;;;;;3.30;100.00;102256.78;5035615;28;20249;-70
2022/04/03 02:33:26;;;;;;;3.13;1.00;;;;;;;3.05;100.00;102233.91;5039034;28;20187;-70
2022/04/03 02:35:52;;;;;;;1.03;0.97;;;;;;;3.12;100.00;102245.75;5035322;28;20446;-70
2022/04/03 02:38:18;;;;;;;1.77;1.10;;;;;;;3.25;100.00;102256.28;5036530;28;20226;-71
2022/04/03 02:40:44;;;;;;;1.63;1.37;;;;;;;3.22;100.00;102248.56;5034642;28;20329;-70
2022/04/03 02:43:11;;;;;;;1.87;1.20;;;;;;;3.12;100.00;102243.94;5037660;28;20461;-71
2022/04/03 02:45:37;;;;;;;2.30;1.13;;;;;;;3.01;100.00;102203.28;5034846;28;20451;-71
2022/04/03 02:48:02;;;;;;;2.03;1.13;;;;;;;3.12;100.00;102245.75;5035170;28;20464;-71
2022/04/03 02:50:28;;;;;;;1.40;1.27;;;;;;;2.91;100.00;102264.94;5034494;28;20231;-71
2022/04/03 02:52:54;;;;;;;1.10;1.00;;;;;;;2.66;100.00;102273.88;5034307;28;20187;-71
2022/04/03 02:55:21;;;;;;;1.10;0.73;;;;;;;2.40;100.00;102219.28;5038210;28;20187;-71
2022/04/03 02:57:47;;;;;;;1.87;1.00;;;;;;;2.54;100.00;102216.47;5036293;28;20463;-70
2022/04/03 03:00:14;;;;;;;2.33;1.10;;;;;;;2.81;100.00;102218.91;5032953;28;21046;-71
2022/04/03 03:02:44;;;;;;;2.63;0.90;;;;;;;3.03;100.00;102265.00;5034722;28;20283;-71
2022/04/03 03:05:10;;;;;;;0.90;0.90;;;;;;;2.88;100.00;102259.88;5037012;28;20449;-70
2022/04/03 03:07:39;;;;;;;2.53;1.03;;;;;;;2.78;100.00;102216.47;5032760;28;20438;-71
2022/04/03 03:10:07;;;;;;;0.93;0.80;;;;;;;2.88;100.00;102251.09;5034165;28;20525;-70
2022/04/03 03:12:33;;;;;;;0.93;0.80;;;;;;;2.57;100.00;102218.03;5032260;28;20458;-70
2022/04/03 03:14:58;;;;;;;0.83;0.77;;;;;;;2.69;100.00;102211.84;5034562;28;20918;-71
2022/04/03 03:17:23;;;;;;;1.00;0.80;;;;;;;2.82;100.00;102204.69;5031901;28;20212;-70
2022/04/03 03:19:49;;;;;;;1.27;0.80;;;;;;;2.93;100.00;102249.78;5036834;28;20192;-71
2022/04/03 03:22:14;;;;;;;2.57;0.90;;;;;;;2.68;100.00;102242.78;5032841;28;20990;-70
2022/04/03 03:24:40;;;;;;;1.23;0.80;;;;;;;2.30;100.00;102183.84;5034893;28;20200;-70
2022/04/03 03:27:05;;;;;;;0.60;0.60;;;;;;;2.31;100.00;102212.00;5036432;28;20203;-70
2022/04/03 03:29:31;;;;;;;1.40;0.80;;;;;;;2.55;100.00;102235.88;5037606;28;20195;-71
2022/04/03 03:31:56;;;;;;;1.23;0.77;;;;;;;2.82;100.00;102236.47;5034313;28;20211;-70
2022/04/03 03:34:22;;;;;;;0.93;0.73;;;;;;;2.33;100.00;102226.00;5035115;28;20183;-70
2022/04/03 03:36:47;;;;;;;1.23;0.77;;;;;;;2.53;100.00;102217.44;5035563;28;20188;-71
2022/04/03 03:39:13;;;;;;;0.73;0.67;;;;;;;2.73;100.00;102250.41;5035183;28;20184;-70
2022/04/03 03:41:39;;;;;;;1.00;0.90;;;;;;;2.49;100.00;102245.13;5035468;28;22114;-71
2022/04/03 03:44:10;;;;;;;2.50;1.00;;;;;;;2.42;100.00;102231.44;5034803;28;20532;-71
2022/04/03 03:46:44;;;;;;;1.67;0.83;;;;;;;2.23;100.00;102217.88;5034696;28;21929;-70
2022/04/03 03:49:10;;;;;;;1.43;1.20;;;;;;;2.10;100.00;102225.00;5032779;28;20438;-70
2022/04/03 03:51:36;;;;;;;5.30;0.83;;;;;;;2.57;100.00;102218.88;5034365;28;20470;-70
2022/04/03 03:54:03;;;;;;;0.67;0.67;;;;;;;2.33;100.00;102168.56;5030030;28;20290;-70
2022/04/03 03:56:28;;;;;;;1.37;0.80;;;;;;;2.46;100.00;102232.94;5035570;28;20443;-70
2022/04/03 03:58:54;;;;;;;1.03;0.93;;;;;;;2.24;100.00;102188.63;5035627;28;20458;-70
2022/04/03 04:01:21;;;;;;;1.43;1.13;;;;;;;2.34;100.00;102162.31;5051073;28;20219;-70
2022/04/03 04:03:46;;;;;;;1.10;0.97;;;;;;;2.53;100.00;102185.66;5033915;28;20450;-70
2022/04/03 04:06:11;;;;;;;1.10;1.00;;;;;;;2.44;100.00;102221.59;5035842;28;20962;-70
2022/04/03 04:08:37;;;;;;;1.80;0.77;;;;;;;2.62;100.00;102215.91;5030483;28;20188;-70
2022/04/03 04:11:03;;;;;;;0.70;0.70;;;;;;;2.67;100.00;102219.91;5037137;28;20235;-70
2022/04/03 04:13:28;;;;;;;1.17;0.73;;;;;;;2.85;100.00;102225.66;5032715;28;20198;-70
2022/04/03 04:15:54;;;;;;;2.03;1.10;;;;;;;2.63;100.00;102223.75;5037919;28;20545;-70
2022/04/03 04:18:20;;;;;;;1.00;0.90;;;;;;;2.75;100.00;102222.00;5036224;28;20261;-70
2022/04/03 04:20:45;;;;;;;1.80;0.90;;;;;;;2.73;100.00;102192.13;5032272;28;20207;-70
2022/04/03 04:23:11;;;;;;;0.77;0.73;;;;;;;2.93;100.00;102198.59;5033797;28;20446;-71
2022/04/03 04:25:36;;;;;;;1.17;1.00;;;;;;;2.87;100.00;102223.75;5033067;28;20216;-71
2022/04/03 04:28:02;;;;;;;2.40;0.90;;;;;;;2.77;100.00;102200.69;5031974;28;20179;-71
2022/04/03 04:30:28;;;;;;;2.03;0.77;;;;;;;2.59;100.00;102216.97;5031939;28;20299;-71
2022/04/03 04:32:53;;;;;;;1.37;0.97;;;;;;;2.72;100.00;102211.63;5035753;28;20541;-71
2022/04/03 04:35:19;;;;;;;0.90;0.77;;;;;;;2.90;100.00;102197.00;5039882;28;20226;-71
2022/04/03 04:37:44;;;;;;;2.10;0.90;;;;;;;2.75;100.00;102184.03;5037748;28;20235;-71
2022/04/03 04:40:11;;;;;;;1.47;0.80;;;;;;;3.13;100.00;102208.53;5036124;28;20216;-70
2022/04/03 04:42:37;;;;;;;2.73;0.77;;;;;;;2.89;100.00;102154.69;5039278;28;20195;-71
2022/04/03 04:45:04;;;;;;;1.10;0.70;;;;;;;2.80;100.00;102145.63;5040159;28;20443;-71
2022/04/03 04:47:34;;;;;;;1.53;0.90;;;;;;;3.26;100.00;102216.38;5041172;28;20207;-70
2022/04/03 04:49:59;;;;;;;1.13;1.03;;;;;;;3.28;100.00;102211.81;5041107;28;20552;-71
2022/04/03 04:52:25;;;;;;;1.13;0.80;;;;;;;3.25;100.00;102229.75;5037538;28;20537;-70
2022/04/03 04:54:50;;;;;;;3.10;0.70;;;;;;;3.42;100.00;102249.69;5038827;28;20226;-68
2022/04/03 04:57:16;;;;;;;1.63;0.90;;;;;;;3.32;100.00;102237.13;5038716;28;20660;-69
2022/04/03 04:59:42;;;;;;;0.60;0.60;;;;;;;3.50;100.00;102212.78;5034517;28;20180;-68
2022/04/03 05:02:07;;;;;;;1.30;0.80;;;;;;;3.52;100.00;102227.63;5037552;28;20226;-68
2022/04/03 05:04:34;;;;;;;3.50;0.67;;;;;;;3.72;100.00;102223.44;5037130;28;20540;-68
2022/04/03 05:06:59;;;;;;;1.10;0.70;;;;;;;3.83;100.00;102218.13;5041582;28;20184;-69
2022/04/03 05:09:25;;;;;;;1.10;0.97;;;;;;;3.82;100.00;102207.63;5037854;28;20449;-68
2022/04/03 05:11:50;;;;;;;0.50;0.50;;;;;;;3.30;100.00;102161.31;5036056;28;20212;-68
2022/04/03 05:14:16;;;;;;;0.93;0.90;;;;;;;3.45;100.00;102183.97;5035989;28;20187;-68
2022/04/03 05:16:42;;;;;;;0.40;0.40;;;;;;;3.73;100.00;102203.03;5037396;28;20183;-68
2022/04/03 05:19:11;;;;;;;1.47;0.40;;;;;;;3.72;100.00;102211.97;5042175;28;20277;-68
2022/04/03 05:21:37;;;;;;;0.70;0.47;;;;;;;3.70;100.00;102213.88;5038497;28;20502;-68
2022/04/03 05:24:03;;;;;;;2.00;0.60;;;;;;;3.44;100.00;102170.81;5034544;28;20817;-69
2022/04/03 05:26:28;;;;;;;2.30;0.80;;;;;;;3.59;100.00;102188.22;5038541;28;20781;-68
2022/04/03 05:28:54;;;;;;;0.80;0.67;;;;;;;3.55;100.00;102194.72;5038182;28;20253;-68
2022/04/03 05:31:19;;;;;;;1.27;0.70;;;;;;;3.89;100.00;102197.38;5038304;28;20220;-68
2022/04/03 05:33:45;;;;;;;1.47;1.07;;;;;;;3.43;100.00;102153.22;5036387;28;20203;-68
2022/04/03 05:36:11;;;;;;;0.60;0.60;;;;;;;3.92;100.00;102221.84;5034481;28;20874;-68
2022/04/03 05:38:36;;;;;;;1.73;0.90;;;;;;;3.81;100.00;102224.50;5039148;28;20966;-68
2022/04/03 05:41:02;;;;;;;2.30;0.80;;;;;;;3.51;100.00;102199.41;5037995;28;20200;-68
2022/04/03 05:43:27;;;;;;;1.67;0.90;;;;;;;3.97;100.00;102235.63;5039374;28;20195;-68
2022/04/03 05:45:53;;;;;;;1.27;0.90;;;;;;;3.50;100.00;102204.81;5034686;28;20645;-69
2022/04/03 05:48:18;;;;;;;3.03;0.80;;;;;;;3.53;100.00;102170.97;5042055;28;20176;-68
2022/04/03 05:50:44;;;;;;;1.93;0.60;;;;;;;3.77;100.00;102223.06;5036152;28;20214;-68
2022/04/03 05:53:10;;;;;;;1.23;0.50;;;;;;;3.63;100.00;102226.81;5039278;28;20192;-68
2022/04/03 05:55:36;;;;;;;2.53;0.70;;;;;;;3.62;100.00;102187.97;5036879;28;20454;-68
2022/04/03 05:58:01;;;;;;;1.13;0.80;;;;;;;3.46;100.00;102175.06;5035835;28;20214;-69
2022/04/03 06:00:27;;;;;;;3.50;0.70;;;;;;;3.70;100.00;102222.69;5038816;28;20199;-69
2022/04/03 06:02:57;;;;;;;1.00;0.70;;;;;;;3.54;100.00;102203.66;5036293;28;20203;-69
2022/04/03 06:05:25;;;;;;;2.30;0.60;;;;;;;3.55;100.00;102208.81;5037852;28;20196;-69
2022/04/03 06:07:51;;;;;;;3.07;1.03;;;;;;;3.42;100.00;102220.53;5037337;28;20442;-69
2022/04/03 06:10:19;;;;;;;1.33;0.60;;;;;;;3.28;100.00;102203.84;5037705;28;21961;-69
2022/04/03 06:13:14;;;;;;;1.10;0.70;;;;;;;3.46;100.00;102224.59;5037398;28;20446;-69
2022/04/03 06:15:42;;;;;;;0.80;0.70;;;;;;;3.40;100.00;102199.41;5034651;28;20446;-69
2022/04/03 06:18:09;;;;;;;2.60;0.80;;;;;;;3.72;100.00;102228.72;5037327;28;20512;-68
2022/04/03 06:20:35;;;;;;;3.00;0.77;;;;;;;3.80;100.00;102223.69;5039767;28;20851;-68
2022/04/03 06:23:01;;;;;;;1.43;0.80;;;;;;;3.81;100.00;102213.91;5037907;28;20947;-69
2022/04/03 06:25:27;;;;;;;2.27;0.80;;;;;;;4.10;100.00;102227.50;5040819;28;20434;-69
2022/04/03 06:27:53;;;;;;;2.00;0.90;;;;;;;3.92;100.00;102231.63;5039307;28;20267;-69
2022/04/03 06:30:19;;;;;;;0.70;0.60;;;;;;;4.05;100.00;102214.63;5034593;28;20820;-68
2022/04/03 06:32:45;;;;;;;0.70;0.60;;;;;;;4.09;100.00;102228.50;5034401;28;20445;-69
2022/04/03 06:35:10;;;;;;;1.07;0.70;;;;;;;4.09;100.00;102233.81;5037222;22;20597;-69
2022/04/03 06:37:36;;;;;;;2.00;0.80;;;;;;;4.14;100.00;102231.63;5007327;28;20574;-67
2022/04/03 06:40:04;;;;;;;1.10;0.77;;;;;;;4.18;100.00;102241.03;5013752;28;20200;-68
2022/04/03 06:42:31;;;;;;;0.90;0.70;;;;;;;4.37;100.00;102226.25;5012027;28;20496;-67
2022/04/03 06:44:57;;;;;;;1.30;0.80;;;;;;;4.24;100.00;102235.22;5013133;28;20455;-68
2022/04/03 06:47:23;;;;;;;2.83;0.83;;;;;;;4.17;100.00;102227.88;5019588;28;20448;-67
2022/04/03 06:49:48;;;;;;;1.47;0.90;;;;;;;4.19;100.00;102237.41;5018407;28;20445;-67
2022/04/03 06:52:14;;;;;;;3.40;0.93;;;;;;;4.21;100.00;102230.16;5019481;28;20189;-67
2022/04/03 06:54:39;;;;;;;3.53;1.10;;;;;;;4.30;100.00;102239.19;5015832;28;20209;-67
2022/04/03 06:57:04;;;;;;;2.97;0.97;;;;;;;4.32;100.00;102233.78;5019431;28;20262;-67
2022/04/03 06:59:30;;;;;;;1.37;0.80;;;;;;;4.26;100.00;102237.78;5019459;28;20191;-67
2022/04/03 07:01:56;;;;;;;2.33;0.80;;;;;;;4.33;100.00;102240.75;5017539;28;20195;-66
2022/04/03 07:04:22;;;;;;;2.00;0.70;;;;;;;4.35;100.00;102239.69;5008068;28;20443;-69
2022/04/03 07:06:48;;;;;;;1.53;0.80;;;;;;;4.11;100.00;102207.09;5012284;28;20191;-67
2022/04/03 07:09:13;;;;;;;2.33;0.90;;;;;;;4.44;100.00;102256.69;5018073;28;20447;-69
2022/04/03 07:11:38;;;;;;;1.70;0.90;;;;;;;4.40;100.00;102234.00;5013956;28;20203;-67
2022/04/03 07:14:04;;;;;;;2.07;1.00;;;;;;;4.36;100.00;102259.94;5014821;28;20196;-67
2022/04/03 07:16:29;;;;;;;0.97;0.90;;;;;;;3.95;100.00;102284.50;5010576;28;20310;-67
2022/04/03 07:18:55;;;;;;;1.90;1.00;;;;;;;3.79;100.00;102292.78;5016286;28;20237;-67
2022/04/03 07:21:20;;;;;;;3.53;1.13;;;;;;;3.63;100.00;102293.97;5015860;28;20196;-67
2022/04/03 07:23:46;;;;;;;2.53;1.20;;;;;;;3.94;100.00;102285.47;5010442;28;21030;-67
2022/04/03 07:26:11;;;;;;;2.10;1.10;;;;;;;3.52;100.00;102277.19;5011494;28;20209;-67
2022/04/03 07:28:37;;;;;;;1.80;0.60;;;;;;;3.74;100.00;102284.38;5012382;28;20271;-67
2022/04/03 07:31:03;;;;;;;0.60;0.60;;;;;;;3.78;100.00;102278.69;5018956;28;20562;-67
2022/04/03 07:33:28;;;;;;;2.60;0.50;;;;;;;3.60;100.00;102274.81;5017118;28;20185;-67
2022/04/03 07:35:54;;;;;;;1.27;0.50;;;;;;;3.70;100.00;102272.28;5016338;28;20270;-67
2022/04/03 07:38:19;;;;;;;0.73;0.43;;;;;;;3.51;100.00;102247.16;5016880;28;20204;-68
2022/04/03 07:40:48;;;;;;;0.67;0.50;;;;;;;3.70;100.00;102273.13;5011842;28;20228;-67
2022/04/03 07:43:16;;;;;;;0.57;0.57;;;;;;;3.53;100.00;102270.91;5017339;28;20688;-67
2022/04/03 07:45:42;;;;;;;1.80;0.50;;;;;;;3.74;100.00;102279.06;5015680;28;20513;-67
2022/04/03 07:48:08;;;;;;;0.60;0.60;;;;;;;3.68;100.00;102272.41;5016166;28;20603;-67
2022/04/03 07:50:34;;;;;;;0.70;0.70;;;;;;;3.24;100.00;102278.44;5017057;28;20510;-67
2022/04/03 07:52:59;;;;;;;3.60;1.40;;;;;;;4.02;100.00;102257.34;5012063;28;20572;-67
2022/04/03 07:55:24;;;;;;;1.53;1.40;;;;;;;4.00;100.00;102256.63;5013515;28;20699;-68
2022/04/03 07:57:50;;;;;;;1.40;1.30;;;;;;;3.72;100.00;102271.19;5011037;28;20688;-68
2022/04/03 08:00:16;;;;;;;1.40;1.20;;;;;;;3.74;100.00;102229.47;5010989;28;20219;-68
2022/04/03 08:02:42;;;;;;;1.23;1.00;;;;;;;3.81;100.00;102259.84;5013150;28;20207;-68
2022/04/03 08:05:08;;;;;;;1.23;1.03;;;;;;;3.82;100.00;102277.50;5014284;28;20685;-68
2022/04/03 08:07:45;;;;;;;0.70;0.70;;;;;;;4.27;100.00;102280.13;5011112;28;20465;-70
2022/04/03 08:10:17;;;;;;;0.80;0.80;;;;;;;4.41;100.00;102235.69;5021778;28;20446;-73
2022/04/03 08:12:44;;;;;;;0.80;0.60;;;;;;;4.78;100.00;102264.59;5020031;28;20546;-75
2022/04/03 08:15:11;;;;;;;0.60;0.53;;;;;;;4.78;100.00;102259.25;5018715;28;20466;-76
2022/04/03 08:17:40;;;;;;;0.50;0.50;;;;;;;4.26;100.00;102195.28;5022522;28;20479;-75
2022/04/03 08:20:16;;;;;;;1.10;1.00;;;;;;;4.70;100.00;102236.78;5035758;28;20865;-72
2022/04/03 08:22:42;;;;;;;1.40;1.30;;;;;;;4.82;100.00;102228.78;5017842;28;20447;-70
2022/04/03 08:25:09;;;;;;;1.27;1.00;;;;;;;5.21;100.00;102262.69;5020449;28;20593;-71
2022/04/03 08:27:46;;;;;;;1.37;1.20;;;;;;;5.32;100.00;102263.59;5014210;28;20952;-70
2022/04/03 08:30:17;;;;;;;1.50;0.90;;;;;;;5.34;100.00;102264.31;5017429;28;20451;-69
2022/04/03 08:32:42;;;;;;;0.70;0.63;;;;;;;5.44;100.00;102258.09;5016579;28;20526;-70
2022/04/03 08:35:09;;;;;;;0.87;0.60;;;;;;;5.24;100.00;102223.53;5011991;28;20484;-70
2022/04/03 08:37:35;;;;;;;0.63;0.60;;;;;;;5.37;100.00;102251.59;5016912;28;20231;-70
2022/04/03 08:40:03;;;;;;;0.77;0.60;;;;;;;5.53;100.00;102276.91;5009599;28;20568;-72
2022/04/03 08:42:28;;;;;;;1.73;0.70;;;;;;;5.70;100.00;102251.50;5018799;28;20554;-70
2022/04/03 08:44:54;;;;;;;6.10;0.90;;;;;;;5.32;100.00;102174.00;5017962;28;20463;-71
2022/04/03 08:47:20;;;;;;;3.07;0.70;;;;;;;5.76;100.00;102227.88;5010573;28;20649;-71
2022/04/03 08:49:47;;;;;;;1.43;0.90;;;;;;;5.90;100.00;102231.97;5018047;28;20289;-72
2022/04/03 08:52:13;;;;;;;1.37;0.70;;;;;;;5.91;100.00;102233.66;5015165;28;20461;-72
2022/04/03 08:54:39;;;;;;;2.60;0.67;;;;;;;5.72;100.00;102204.28;5015783;28;20468;-72
2022/04/03 08:57:06;;;;;;;3.47;1.33;;;;;;;5.81;100.00;102241.59;5015206;28;20447;-72
2022/04/03 08:59:31;;;;;;;2.70;1.00;;;;;;;5.43;100.00;102181.03;5012008;28;20443;-72
2022/04/03 09:01:57;;;;;;;3.43;0.90;;;;;;;5.75;100.00;102227.97;5013264;28;20535;-73
2022/04/03 09:04:22;;;;;;;1.23;0.70;;;;;;;5.69;100.00;102200.06;5017651;28;20562;-71
2022/04/03 09:06:55;;;;;;;1.90;0.90;;;;;;;5.62;100.00;102196.28;5023473;28;20192;-70
2022/04/03 09:09:22;;;;;;;1.90;0.70;;;;;;;5.91;100.00;102233.66;5014324;28;20275;-71
2022/04/03 09:12:15;;;;;;;2.13;1.03;;;;;;;5.69;100.00;102236.50;5015911;28;20466;-71
2022/04/03 09:15:11;;;;;;;2.30;0.77;;;;;;;5.86;100.00;102246.53;5018221;28;20466;-71
2022/04/03 09:17:42;;;;;;;1.57;0.80;;;;;;;5.24;100.00;102149.03;4999144;28;21322;-72
2022/04/03 09:20:10;;;;;;;1.07;0.70;;;;;;;5.72;100.00;102233.59;5016391;28;20438;-72
2022/04/03 09:22:37;;;;;;;2.87;0.77;;;;;;;5.83;100.00;102250.31;5019011;28;21666;-72
2022/04/03 09:25:07;;;;;;;2.57;0.90;;;;;;;6.11;100.00;102238.13;5019672;28;20465;-72
2022/04/03 09:27:45;;;;;;;1.80;0.90;;;;;;;6.10;100.00;102228.47;5020727;28;20919;-71
2022/04/03 09:30:10;;;;;;;1.97;0.80;;;;;;;6.08;100.00;102222.41;5013464;28;20443;-71
2022/04/03 09:32:46;;;;;;;1.23;0.80;;;;;;;6.25;100.00;102228.03;5016998;28;20466;-71
2022/04/03 09:35:12;;;;;;;3.10;0.80;;;;;;;6.14;100.00;102230.84;5014060;28;20302;-71
2022/04/03 09:37:38;;;;;;;3.93;1.10;;;;;;;5.81;100.00;102217.63;5015489;28;20473;-70
2022/04/03 09:40:03;;;;;;;2.70;0.70;;;;;;;5.34;100.00;102165.88;5016443;28;20184;-70
2022/04/03 09:42:29;;;;;;;1.33;0.60;;;;;;;5.42;100.00;102203.31;5015520;28;20181;-70
2022/04/03 09:44:55;;;;;;;3.03;0.70;;;;;;;5.78;100.00;102243.69;5006145;28;20212;-69
2022/04/03 09:47:26;;;;;;;2.20;0.63;;;;;;;5.78;100.00;102204.59;5014997;28;20447;-68
2022/04/03 09:49:55;;;;;;;1.30;0.70;;;;;;;5.82;100.00;102231.81;5020597;28;20238;-69
2022/04/03 09:52:41;;;;;;;2.67;1.10;;;;;;;6.00;100.00;102230.22;5020781;28;20482;-69
2022/04/03 09:55:07;;;;;;;1.07;0.70;;;;;;;6.19;100.00;102226.81;5022099;28;20483;-70
2022/04/03 09:57:32;;;;;;;0.80;0.63;;;;;;;6.42;100.00;102216.75;5017789;28;20473;-70
2022/04/03 09:59:58;;;;;;;2.57;0.70;;;;;;;6.41;100.00;102216.88;5022389;28;20431;-70
2022/04/03 10:02:24;;;;;;;1.50;0.60;;;;;;;6.40;100.00;102220.53;5020199;28;20553;-70
2022/04/03 10:04:51;;;;;;;1.60;0.70;;;;;;;6.15;100.00;102176.56;5019379;28;20200;-69
2022/04/03 10:07:17;;;;;;;1.47;0.70;;;;;;;6.37;100.00;102228.81;5021609;28;20999;-70
2022/04/03 10:09:51;;;;;;;4.50;1.00;;;;;;;6.10;100.00;102206.28;5023795;28;20510;-69
2022/04/03 10:12:19;;;;;;;0.70;0.67;;;;;;;6.14;100.00;102221.03;5023438;28;20210;-70
2022/04/03 10:14:47;;;;;;;1.90;0.50;;;;;;;6.19;100.00;102221.47;5037190;28;20477;-71
2022/04/03 10:17:13;;;;;;;3.47;0.60;;;;;;;6.20;100.00;102150.38;5022489;28;20947;-70
2022/04/03 10:19:40;;;;;;;0.50;0.50;;;;;;;6.31;100.00;102139.59;5022571;28;20430;-72
2022/04/03 10:22:28;;;;;;;3.77;0.77;;;;;;;6.62;100.00;102209.59;5020669;28;20490;-69
2022/04/03 10:25:02;;;;;;;3.63;0.70;;;;;;;6.81;100.00;102206.09;5023419;28;20447;-69
2022/04/03 10:27:35;;;;;;;1.80;0.70;;;;;;;6.87;100.00;102205.53;5020951;28;20423;-70
2022/04/03 10:30:01;;;;;;;2.40;1.10;;;;;;;6.71;100.00;102143.91;5023434;28;20426;-70
2022/04/03 10:32:29;;;;;;;1.13;0.50;;;;;;;6.74;100.00;102173.84;5020666;28;20440;-70
2022/04/03 10:35:01;;;;;;;0.87;0.70;;;;;;;6.75;100.00;102206.66;5021715;28;20285;-69
2022/04/03 10:37:33;;;;;;;1.03;0.60;;;;;;;6.89;100.00;102184.91;5021341;28;20554;-70
2022/04/03 10:40:09;;;;;;;1.50;0.70;;;;;;;6.83;100.00;102180.16;5024167;28;20427;-70
2022/04/03 10:42:49;;;;;;;1.30;0.60;;;;;;;6.69;100.00;102148.56;5016876;28;20438;-70
2022/04/03 10:45:14;;;;;;;1.20;0.83;;;;;;;6.94;100.00;102188.00;5022070;28;20967;-70
2022/04/03 10:47:41;;;;;;;1.50;0.70;;;;;;;6.95;100.00;102192.34;5019540;28;20546;-71
2022/04/03 10:50:09;;;;;;;1.90;0.87;;;;;;;7.17;100.00;102177.00;5021316;28;20267;-71
2022/04/03 10:52:37;;;;;;;1.00;0.70;;;;;;;7.41;100.00;102188.03;5022175;28;20438;-71
2022/04/03 10:55:20;;;;;;;2.00;0.70;;;;;;;7.08;100.00;102193.88;5021207;28;20525;-70
2022/04/03 10:57:49;;;;;;;2.93;0.80;;;;;;;6.43;100.00;102138.47;5018181;28;20552;-70
2022/04/03 11:00:14;;;;;;;1.23;0.60;;;;;;;6.91;100.00;102201.59;5020934;28;20438;-70
2022/04/03 11:02:45;;;;;;;3.10;0.90;;;;;;;6.92;100.00;102176.63;5022211;28;20443;-70
2022/04/03 11:05:45;;;;;;;1.73;0.80;;;;;;;7.32;100.00;102186.25;5018251;28;20688;-70
2022/04/03 11:08:13;;;;;;;2.20;0.77;;;;;;;7.47;100.00;102184.78;5012575;28;20448;-71
2022/04/03 11:10:57;;;;;;;3.90;0.93;;;;;;;7.31;100.00;102184.53;5016389;28;20443;-70
2022/04/03 11:13:26;;;;;;;0.87;0.70;;;;;;;7.46;100.00;102183.13;5015059;28;20444;-70
2022/04/03 11:16:09;;;;;;;0.93;0.60;;;;;;;7.30;100.00;102177.53;5022803;28;20451;-70
2022/04/03 11:18:47;;;;;;;3.13;0.70;;;;;;;7.19;100.00;102188.38;5021923;28;21040;-70
2022/04/03 11:21:25;;;;;;;1.47;0.70;;;;;;;7.04;100.00;102179.97;5019098;28;20547;-70
2022/04/03 11:23:54;;;;;;;2.17;0.80;;;;;;;6.97;100.00;102185.06;5019350;28;20438;-69